sensor_id;sensor_type;location;lat;lon;timestamp;P1;durP1;ratioP1;P2;durP2;ratioP2
58768;SDS011;44536;47.474;19.056;2022-08-25T00:00:27;11.82;;;5.97;;
58768;SDS011;44536;47.474;19.056;2022-08-25T00:03:30;11.77;;;7.18;;
58768;SDS011;44536;47.474;19.056;2022-08-25T00:06:41;9.20;;;5.87;;
58768;SDS011;44536;47.474;19.056;2022-08-25T00:09:44;14.75;;;7.45;;
58768;SDS011;44536;47.474;19.056;2022-08-25T00:12:47;11.35;;;5.90;;
58768;SDS011;44536;47.474;19.056;2022-08-25T00:15:50;10.25;;;6.82;;
58768;SDS011;44536;47.474;19.056;2022-08-25T00:18:53;11.30;;;5.25;;
58768;SDS011;44536;47.474;19.056;2022-08-25T00:21:57;11.73;;;5.82;;
58768;SDS011;44536;47.474;19.056;2022-08-25T00:25:00;11.47;;;7.33;;
58768;SDS011;44536;47.474;19.056;2022-08-25T00:28:02;11.40;;;6.22;;
58768;SDS011;44536;47.474;19.056;2022-08-25T00:31:16;11.10;;;6.45;;
58768;SDS011;44536;47.474;19.056;2022-08-25T00:34:22;9.55;;;5.32;;
58768;SDS011;44536;47.474;19.056;2022-08-25T00:37:27;10.50;;;5.57;;
58768;SDS011;44536;47.474;19.056;2022-08-25T00:40:29;10.45;;;5.85;;
58768;SDS011;44536;47.474;19.056;2022-08-25T00:43:42;10.90;;;6.63;;
58768;SDS011;44536;47.474;19.056;2022-08-25T00:46:53;10.00;;;6.47;;
58768;SDS011;44536;47.474;19.056;2022-08-25T00:49:57;12.82;;;6.72;;
58768;SDS011;44536;47.474;19.056;2022-08-25T00:53:03;12.95;;;7.37;;
58768;SDS011;44536;47.474;19.056;2022-08-25T00:59:08;11.68;;;5.53;;
58768;SDS011;44536;47.474;19.056;2022-08-25T01:02:12;11.18;;;5.85;;
58768;SDS011;44536;47.474;19.056;2022-08-25T01:05:16;10.25;;;6.18;;
58768;SDS011;44536;47.474;19.056;2022-08-25T01:08:21;12.45;;;6.95;;
58768;SDS011;44536;47.474;19.056;2022-08-25T01:11:30;10.75;;;6.40;;
58768;SDS011;44536;47.474;19.056;2022-08-25T01:14:32;12.82;;;6.15;;
58768;SDS011;44536;47.474;19.056;2022-08-25T01:17:47;12.48;;;5.57;;
58768;SDS011;44536;47.474;19.056;2022-08-25T01:20:54;13.48;;;6.12;;
58768;SDS011;44536;47.474;19.056;2022-08-25T01:23:58;13.98;;;6.53;;
58768;SDS011;44536;47.474;19.056;2022-08-25T01:27:01;13.73;;;6.07;;
58768;SDS011;44536;47.474;19.056;2022-08-25T01:30:04;9.82;;;5.93;;
58768;SDS011;44536;47.474;19.056;2022-08-25T01:33:07;8.70;;;5.60;;
58768;SDS011;44536;47.474;19.056;2022-08-25T01:36:16;11.85;;;7.20;;
58768;SDS011;44536;47.474;19.056;2022-08-25T01:39:19;11.25;;;6.10;;
58768;SDS011;44536;47.474;19.056;2022-08-25T01:42:23;11.38;;;5.57;;
58768;SDS011;44536;47.474;19.056;2022-08-25T01:45:49;14.90;;;6.97;;
58768;SDS011;44536;47.474;19.056;2022-08-25T01:48:51;11.47;;;5.73;;
58768;SDS011;44536;47.474;19.056;2022-08-25T01:55:12;15.13;;;6.20;;
58768;SDS011;44536;47.474;19.056;2022-08-25T01:58:15;9.90;;;5.75;;
58768;SDS011;44536;47.474;19.056;2022-08-25T02:01:18;8.45;;;5.05;;
58768;SDS011;44536;47.474;19.056;2022-08-25T02:04:23;10.88;;;6.12;;
58768;SDS011;44536;47.474;19.056;2022-08-25T02:07:26;11.55;;;6.22;;
58768;SDS011;44536;47.474;19.056;2022-08-25T02:10:28;10.32;;;5.60;;
58768;SDS011;44536;47.474;19.056;2022-08-25T02:13:30;11.50;;;6.20;;
58768;SDS011;44536;47.474;19.056;2022-08-25T02:16:34;12.55;;;5.57;;
58768;SDS011;44536;47.474;19.056;2022-08-25T02:19:37;13.43;;;5.80;;
58768;SDS011;44536;47.474;19.056;2022-08-25T02:22:40;12.20;;;5.85;;
58768;SDS011;44536;47.474;19.056;2022-08-25T02:25:49;10.43;;;5.93;;
58768;SDS011;44536;47.474;19.056;2022-08-25T02:28:52;10.25;;;6.03;;
58768;SDS011;44536;47.474;19.056;2022-08-25T02:31:54;10.15;;;5.87;;
58768;SDS011;44536;47.474;19.056;2022-08-25T02:34:57;11.18;;;6.12;;
58768;SDS011;44536;47.474;19.056;2022-08-25T02:37:59;10.30;;;5.90;;
58768;SDS011;44536;47.474;19.056;2022-08-25T02:41:07;9.35;;;5.62;;
58768;SDS011;44536;47.474;19.056;2022-08-25T02:44:13;12.77;;;5.72;;
58768;SDS011;44536;47.474;19.056;2022-08-25T02:47:15;15.07;;;6.57;;
58768;SDS011;44536;47.474;19.056;2022-08-25T02:50:18;12.15;;;5.80;;
58768;SDS011;44536;47.474;19.056;2022-08-25T02:53:20;12.60;;;6.03;;
58768;SDS011;44536;47.474;19.056;2022-08-25T02:56:23;12.02;;;6.35;;
58768;SDS011;44536;47.474;19.056;2022-08-25T02:59:26;11.40;;;6.25;;
58768;SDS011;44536;47.474;19.056;2022-08-25T03:02:29;19.33;;;6.18;;
58768;SDS011;44536;47.474;19.056;2022-08-25T03:05:31;9.60;;;5.25;;
58768;SDS011;44536;47.474;19.056;2022-08-25T03:08:35;12.18;;;7.07;;
58768;SDS011;44536;47.474;19.056;2022-08-25T03:11:38;10.80;;;5.87;;
58768;SDS011;44536;47.474;19.056;2022-08-25T03:14:40;10.13;;;5.47;;
58768;SDS011;44536;47.474;19.056;2022-08-25T03:17:44;10.00;;;6.22;;
58768;SDS011;44536;47.474;19.056;2022-08-25T03:20:51;11.75;;;6.07;;
58768;SDS011;44536;47.474;19.056;2022-08-25T03:23:54;12.17;;;6.13;;
58768;SDS011;44536;47.474;19.056;2022-08-25T03:26:57;10.95;;;5.37;;
58768;SDS011;44536;47.474;19.056;2022-08-25T03:29:59;10.90;;;5.97;;
58768;SDS011;44536;47.474;19.056;2022-08-25T03:33:03;10.65;;;6.18;;
58768;SDS011;44536;47.474;19.056;2022-08-25T03:36:06;11.73;;;6.60;;
58768;SDS011;44536;47.474;19.056;2022-08-25T03:42:11;11.75;;;5.15;;
58768;SDS011;44536;47.474;19.056;2022-08-25T03:45:15;13.00;;;6.57;;
58768;SDS011;44536;47.474;19.056;2022-08-25T03:48:19;9.25;;;5.85;;
58768;SDS011;44536;47.474;19.056;2022-08-25T03:54:28;13.32;;;5.15;;
58768;SDS011;44536;47.474;19.056;2022-08-25T03:57:30;17.87;;;6.80;;
58768;SDS011;44536;47.474;19.056;2022-08-25T04:00:33;14.43;;;9.13;;
58768;SDS011;44536;47.474;19.056;2022-08-25T04:03:36;11.02;;;5.45;;
58768;SDS011;44536;47.474;19.056;2022-08-25T04:06:39;10.45;;;5.57;;
58768;SDS011;44536;47.474;19.056;2022-08-25T04:09:41;7.75;;;4.97;;
58768;SDS011;44536;47.474;19.056;2022-08-25T04:12:44;9.98;;;4.90;;
58768;SDS011;44536;47.474;19.056;2022-08-25T04:15:46;9.57;;;5.17;;
58768;SDS011;44536;47.474;19.056;2022-08-25T04:18:49;9.60;;;5.57;;
58768;SDS011;44536;47.474;19.056;2022-08-25T04:21:53;10.85;;;5.93;;
58768;SDS011;44536;47.474;19.056;2022-08-25T04:24:58;10.88;;;6.40;;
58768;SDS011;44536;47.474;19.056;2022-08-25T04:28:01;10.38;;;6.47;;
58768;SDS011;44536;47.474;19.056;2022-08-25T04:31:06;10.18;;;6.40;;
58768;SDS011;44536;47.474;19.056;2022-08-25T04:34:10;9.68;;;6.12;;
58768;SDS011;44536;47.474;19.056;2022-08-25T04:37:31;9.85;;;5.82;;
58768;SDS011;44536;47.474;19.056;2022-08-25T04:40:35;12.82;;;5.35;;
58768;SDS011;44536;47.474;19.056;2022-08-25T04:43:38;13.75;;;6.37;;
58768;SDS011;44536;47.474;19.056;2022-08-25T04:46:42;11.38;;;6.65;;
58768;SDS011;44536;47.474;19.056;2022-08-25T04:49:44;14.68;;;7.05;;
58768;SDS011;44536;47.474;19.056;2022-08-25T04:52:47;14.75;;;8.50;;
58768;SDS011;44536;47.474;19.056;2022-08-25T04:55:50;13.40;;;6.20;;
58768;SDS011;44536;47.474;19.056;2022-08-25T04:58:52;14.43;;;6.30;;
58768;SDS011;44536;47.474;19.056;2022-08-25T05:01:55;9.57;;;6.15;;
58768;SDS011;44536;47.474;19.056;2022-08-25T05:04:59;10.10;;;7.07;;
58768;SDS011;44536;47.474;19.056;2022-08-25T05:08:03;12.13;;;6.77;;
58768;SDS011;44536;47.474;19.056;2022-08-25T05:11:08;10.93;;;6.20;;
58768;SDS011;44536;47.474;19.056;2022-08-25T05:14:14;15.43;;;5.82;;
58768;SDS011;44536;47.474;19.056;2022-08-25T05:17:19;9.82;;;5.85;;
58768;SDS011;44536;47.474;19.056;2022-08-25T05:20:23;10.30;;;6.87;;
58768;SDS011;44536;47.474;19.056;2022-08-25T05:23:26;13.02;;;6.75;;
58768;SDS011;44536;47.474;19.056;2022-08-25T05:26:29;11.25;;;6.22;;
58768;SDS011;44536;47.474;19.056;2022-08-25T05:29:32;13.73;;;6.60;;
58768;SDS011;44536;47.474;19.056;2022-08-25T05:32:35;11.07;;;6.45;;
58768;SDS011;44536;47.474;19.056;2022-08-25T05:35:38;13.62;;;6.82;;
58768;SDS011;44536;47.474;19.056;2022-08-25T05:38:40;9.20;;;6.45;;
58768;SDS011;44536;47.474;19.056;2022-08-25T05:41:43;14.82;;;7.85;;
58768;SDS011;44536;47.474;19.056;2022-08-25T05:44:45;11.40;;;6.07;;
58768;SDS011;44536;47.474;19.056;2022-08-25T05:47:49;9.45;;;5.55;;
58768;SDS011;44536;47.474;19.056;2022-08-25T05:50:53;8.13;;;5.32;;
58768;SDS011;44536;47.474;19.056;2022-08-25T05:53:56;10.45;;;5.22;;
58768;SDS011;44536;47.474;19.056;2022-08-25T05:57:00;14.05;;;5.37;;
58768;SDS011;44536;47.474;19.056;2022-08-25T06:00:06;9.48;;;5.12;;
58768;SDS011;44536;47.474;19.056;2022-08-25T06:03:12;9.80;;;5.75;;
58768;SDS011;44536;47.474;19.056;2022-08-25T06:06:15;10.10;;;6.28;;
58768;SDS011;44536;47.474;19.056;2022-08-25T06:09:17;10.40;;;5.53;;
58768;SDS011;44536;47.474;19.056;2022-08-25T06:15:23;8.30;;;5.43;;
58768;SDS011;44536;47.474;19.056;2022-08-25T06:18:28;9.07;;;5.15;;
58768;SDS011;44536;47.474;19.056;2022-08-25T06:21:30;10.80;;;6.60;;
58768;SDS011;44536;47.474;19.056;2022-08-25T06:24:33;9.75;;;5.00;;
58768;SDS011;44536;47.474;19.056;2022-08-25T06:33:40;11.52;;;5.05;;
58768;SDS011;44536;47.474;19.056;2022-08-25T06:36:43;8.80;;;4.50;;
58768;SDS011;44536;47.474;19.056;2022-08-25T06:39:50;9.73;;;4.78;;
58768;SDS011;44536;47.474;19.056;2022-08-25T06:42:55;8.20;;;4.85;;
58768;SDS011;44536;47.474;19.056;2022-08-25T06:46:08;11.07;;;4.80;;
58768;SDS011;44536;47.474;19.056;2022-08-25T06:49:13;8.07;;;3.97;;
58768;SDS011;44536;47.474;19.056;2022-08-25T06:55:17;6.75;;;4.35;;
58768;SDS011;44536;47.474;19.056;2022-08-25T07:01:23;9.40;;;4.60;;
58768;SDS011;44536;47.474;19.056;2022-08-25T07:04:33;10.38;;;4.90;;
58768;SDS011;44536;47.474;19.056;2022-08-25T07:07:36;9.98;;;4.50;;
58768;SDS011;44536;47.474;19.056;2022-08-25T07:10:45;9.50;;;4.22;;
58768;SDS011;44536;47.474;19.056;2022-08-25T07:13:49;7.20;;;4.25;;
58768;SDS011;44536;47.474;19.056;2022-08-25T07:16:52;7.82;;;3.92;;
58768;SDS011;44536;47.474;19.056;2022-08-25T07:19:54;9.32;;;4.22;;
58768;SDS011;44536;47.474;19.056;2022-08-25T07:22:58;8.00;;;3.75;;
58768;SDS011;44536;47.474;19.056;2022-08-25T07:26:11;8.52;;;4.65;;
58768;SDS011;44536;47.474;19.056;2022-08-25T07:29:40;23.92;;;5.55;;
58768;SDS011;44536;47.474;19.056;2022-08-25T07:32:44;12.07;;;4.97;;
58768;SDS011;44536;47.474;19.056;2022-08-25T07:35:46;8.95;;;4.28;;
58768;SDS011;44536;47.474;19.056;2022-08-25T07:38:51;7.45;;;3.37;;
58768;SDS011;44536;47.474;19.056;2022-08-25T07:41:53;7.32;;;3.58;;
58768;SDS011;44536;47.474;19.056;2022-08-25T07:44:56;9.15;;;4.97;;
58768;SDS011;44536;47.474;19.056;2022-08-25T07:48:08;11.00;;;5.50;;
58768;SDS011;44536;47.474;19.056;2022-08-25T07:51:14;11.30;;;4.70;;
58768;SDS011;44536;47.474;19.056;2022-08-25T07:54:16;7.37;;;4.62;;
58768;SDS011;44536;47.474;19.056;2022-08-25T07:57:19;9.82;;;4.40;;
58768;SDS011;44536;47.474;19.056;2022-08-25T08:00:23;11.43;;;5.45;;
58768;SDS011;44536;47.474;19.056;2022-08-25T08:03:30;9.25;;;4.30;;
58768;SDS011;44536;47.474;19.056;2022-08-25T08:06:52;11.55;;;4.72;;
58768;SDS011;44536;47.474;19.056;2022-08-25T08:09:54;9.00;;;4.25;;
58768;SDS011;44536;47.474;19.056;2022-08-25T08:13:16;11.05;;;4.20;;
58768;SDS011;44536;47.474;19.056;2022-08-25T08:16:23;7.65;;;3.97;;
58768;SDS011;44536;47.474;19.056;2022-08-25T08:19:27;7.32;;;3.85;;
58768;SDS011;44536;47.474;19.056;2022-08-25T08:22:30;9.07;;;4.15;;
58768;SDS011;44536;47.474;19.056;2022-08-25T08:25:32;6.10;;;3.37;;
58768;SDS011;44536;47.474;19.056;2022-08-25T08:28:35;10.48;;;4.32;;
58768;SDS011;44536;47.474;19.056;2022-08-25T08:31:37;8.32;;;3.85;;
58768;SDS011;44536;47.474;19.056;2022-08-25T08:34:40;7.05;;;4.32;;
58768;SDS011;44536;47.474;19.056;2022-08-25T08:37:42;10.70;;;3.75;;
58768;SDS011;44536;47.474;19.056;2022-08-25T08:40:47;8.25;;;3.55;;
58768;SDS011;44536;47.474;19.056;2022-08-25T08:47:36;7.28;;;3.42;;
58768;SDS011;44536;47.474;19.056;2022-08-25T08:51:15;14.15;;;3.35;;
58768;SDS011;44536;47.474;19.056;2022-08-25T08:54:24;6.50;;;3.80;;
58768;SDS011;44536;47.474;19.056;2022-08-25T08:57:36;8.43;;;3.17;;
58768;SDS011;44536;47.474;19.056;2022-08-25T09:00:47;6.80;;;3.60;;
58768;SDS011;44536;47.474;19.056;2022-08-25T09:03:55;6.53;;;3.47;;
58768;SDS011;44536;47.474;19.056;2022-08-25T09:07:10;9.13;;;4.15;;
58768;SDS011;44536;47.474;19.056;2022-08-25T09:10:17;9.48;;;4.12;;
58768;SDS011;44536;47.474;19.056;2022-08-25T09:13:26;10.05;;;3.67;;
58768;SDS011;44536;47.474;19.056;2022-08-25T10:57:08;9.20;;;3.78;;
58768;SDS011;44536;47.474;19.056;2022-08-25T11:00:24;5.93;;;3.35;;
58768;SDS011;44536;47.474;19.056;2022-08-25T11:03:37;10.43;;;4.12;;
58768;SDS011;44536;47.474;19.056;2022-08-25T11:06:51;7.62;;;3.83;;
58768;SDS011;44536;47.474;19.056;2022-08-25T11:10:02;7.10;;;3.28;;
58768;SDS011;44536;47.474;19.056;2022-08-25T11:13:17;6.00;;;3.90;;
58768;SDS011;44536;47.474;19.056;2022-08-25T11:16:30;7.07;;;3.37;;
58768;SDS011;44536;47.474;19.056;2022-08-25T11:19:42;9.02;;;3.50;;
58768;SDS011;44536;47.474;19.056;2022-08-25T11:22:49;8.20;;;3.50;;
58768;SDS011;44536;47.474;19.056;2022-08-25T11:25:58;7.35;;;2.90;;
58768;SDS011;44536;47.474;19.056;2022-08-25T11:29:05;10.55;;;4.32;;
58768;SDS011;44536;47.474;19.056;2022-08-25T11:32:13;7.15;;;3.70;;
58768;SDS011;44536;47.474;19.056;2022-08-25T11:48:45;5.75;;;3.40;;
58768;SDS011;44536;47.474;19.056;2022-08-25T11:51:52;9.55;;;3.70;;
58768;SDS011;44536;47.474;19.056;2022-08-25T11:54:55;6.70;;;3.70;;
58768;SDS011;44536;47.474;19.056;2022-08-25T12:04:44;9.90;;;4.05;;
58768;SDS011;44536;47.474;19.056;2022-08-25T12:07:58;10.90;;;3.92;;
58768;SDS011;44536;47.474;19.056;2022-08-25T12:14:44;9.20;;;3.65;;
58768;SDS011;44536;47.474;19.056;2022-08-25T12:21:12;9.50;;;3.90;;
58768;SDS011;44536;47.474;19.056;2022-08-25T12:24:52;8.57;;;3.35;;
58768;SDS011;44536;47.474;19.056;2022-08-25T12:28:13;10.18;;;3.47;;
58768;SDS011;44536;47.474;19.056;2022-08-25T12:35:22;6.45;;;3.78;;
58768;SDS011;44536;47.474;19.056;2022-08-25T12:38:41;8.20;;;3.80;;
58768;SDS011;44536;47.474;19.056;2022-08-25T12:41:57;7.70;;;3.85;;
58768;SDS011;44536;47.474;19.056;2022-08-25T12:49:01;6.37;;;3.22;;
58768;SDS011;44536;47.474;19.056;2022-08-25T12:52:08;7.97;;;3.75;;
58768;SDS011;44536;47.474;19.056;2022-08-25T12:55:16;7.03;;;3.30;;
58768;SDS011;44536;47.474;19.056;2022-08-25T12:58:23;9.40;;;4.05;;
58768;SDS011;44536;47.474;19.056;2022-08-25T13:08:47;7.62;;;4.20;;
58768;SDS011;44536;47.474;19.056;2022-08-25T13:15:12;7.68;;;3.92;;
58768;SDS011;44536;47.474;19.056;2022-08-25T13:18:21;5.32;;;3.42;;
58768;SDS011;44536;47.474;19.056;2022-08-25T13:21:35;14.00;;;4.57;;
58768;SDS011;44536;47.474;19.056;2022-08-25T13:24:40;7.95;;;3.60;;
58768;SDS011;44536;47.474;19.056;2022-08-25T13:27:53;8.73;;;3.62;;
58768;SDS011;44536;47.474;19.056;2022-08-25T13:31:01;14.25;;;4.20;;
58768;SDS011;44536;47.474;19.056;2022-08-25T13:34:31;10.60;;;3.85;;
58768;SDS011;44536;47.474;19.056;2022-08-25T13:37:36;8.70;;;3.45;;
58768;SDS011;44536;47.474;19.056;2022-08-25T13:40:41;11.60;;;4.20;;
58768;SDS011;44536;47.474;19.056;2022-08-25T13:43:45;8.43;;;4.70;;
58768;SDS011;44536;47.474;19.056;2022-08-25T13:46:47;10.98;;;3.70;;
58768;SDS011;44536;47.474;19.056;2022-08-25T13:53:32;7.35;;;4.10;;
58768;SDS011;44536;47.474;19.056;2022-08-25T13:59:42;6.78;;;3.80;;
58768;SDS011;44536;47.474;19.056;2022-08-25T14:02:51;7.07;;;3.72;;
58768;SDS011;44536;47.474;19.056;2022-08-25T14:09:17;6.90;;;3.70;;
58768;SDS011;44536;47.474;19.056;2022-08-25T14:12:31;14.32;;;4.18;;
58768;SDS011;44536;47.474;19.056;2022-08-25T14:15:34;6.28;;;3.17;;
58768;SDS011;44536;47.474;19.056;2022-08-25T14:18:37;10.23;;;3.95;;
58768;SDS011;44536;47.474;19.056;2022-08-25T14:21:47;8.05;;;3.90;;
58768;SDS011;44536;47.474;19.056;2022-08-25T14:24:57;9.05;;;3.12;;
58768;SDS011;44536;47.474;19.056;2022-08-25T14:31:22;7.72;;;3.62;;
58768;SDS011;44536;47.474;19.056;2022-08-25T14:34:31;7.00;;;3.67;;
58768;SDS011;44536;47.474;19.056;2022-08-25T14:37:37;8.88;;;3.80;;
58768;SDS011;44536;47.474;19.056;2022-08-25T14:40:41;10.38;;;3.55;;
58768;SDS011;44536;47.474;19.056;2022-08-25T14:43:43;9.30;;;3.12;;
58768;SDS011;44536;47.474;19.056;2022-08-25T14:46:49;9.90;;;4.00;;
58768;SDS011;44536;47.474;19.056;2022-08-25T14:49:55;11.38;;;4.05;;
58768;SDS011;44536;47.474;19.056;2022-08-25T14:52:57;7.45;;;3.90;;
58768;SDS011;44536;47.474;19.056;2022-08-25T14:56:00;11.27;;;3.65;;
58768;SDS011;44536;47.474;19.056;2022-08-25T14:59:10;9.45;;;4.22;;
58768;SDS011;44536;47.474;19.056;2022-08-25T15:02:13;7.40;;;3.25;;
58768;SDS011;44536;47.474;19.056;2022-08-25T15:05:22;7.55;;;3.65;;
58768;SDS011;44536;47.474;19.056;2022-08-25T15:08:29;9.38;;;4.00;;
58768;SDS011;44536;47.474;19.056;2022-08-25T15:11:51;8.48;;;3.78;;
58768;SDS011;44536;47.474;19.056;2022-08-25T15:14:57;7.55;;;4.40;;
58768;SDS011;44536;47.474;19.056;2022-08-25T15:17:59;10.35;;;5.15;;
58768;SDS011;44536;47.474;19.056;2022-08-25T15:21:02;7.60;;;3.97;;
58768;SDS011;44536;47.474;19.056;2022-08-25T15:24:05;8.15;;;3.90;;
58768;SDS011;44536;47.474;19.056;2022-08-25T15:27:11;7.03;;;3.45;;
58768;SDS011;44536;47.474;19.056;2022-08-25T15:30:15;8.75;;;3.65;;
58768;SDS011;44536;47.474;19.056;2022-08-25T15:33:19;9.23;;;4.22;;
58768;SDS011;44536;47.474;19.056;2022-08-25T15:36:23;6.47;;;3.65;;
58768;SDS011;44536;47.474;19.056;2022-08-25T15:39:27;7.85;;;3.97;;
58768;SDS011;44536;47.474;19.056;2022-08-25T15:42:29;7.22;;;3.95;;
58768;SDS011;44536;47.474;19.056;2022-08-25T15:45:32;7.75;;;4.28;;
58768;SDS011;44536;47.474;19.056;2022-08-25T15:48:36;5.75;;;3.78;;
58768;SDS011;44536;47.474;19.056;2022-08-25T15:51:39;7.60;;;3.95;;
58768;SDS011;44536;47.474;19.056;2022-08-25T15:54:41;7.82;;;3.65;;
58768;SDS011;44536;47.474;19.056;2022-08-25T15:57:46;8.00;;;3.70;;
58768;SDS011;44536;47.474;19.056;2022-08-25T16:00:51;8.20;;;3.87;;
58768;SDS011;44536;47.474;19.056;2022-08-25T16:03:57;7.28;;;3.55;;
58768;SDS011;44536;47.474;19.056;2022-08-25T16:07:00;5.80;;;3.58;;
58768;SDS011;44536;47.474;19.056;2022-08-25T16:10:03;7.72;;;3.50;;
58768;SDS011;44536;47.474;19.056;2022-08-25T16:13:06;8.32;;;3.90;;
58768;SDS011;44536;47.474;19.056;2022-08-25T16:16:10;8.32;;;3.30;;
58768;SDS011;44536;47.474;19.056;2022-08-25T16:19:12;7.87;;;3.28;;
58768;SDS011;44536;47.474;19.056;2022-08-25T16:22:16;7.53;;;3.60;;
58768;SDS011;44536;47.474;19.056;2022-08-25T16:25:18;6.93;;;3.87;;
58768;SDS011;44536;47.474;19.056;2022-08-25T16:28:22;6.70;;;3.62;;
58768;SDS011;44536;47.474;19.056;2022-08-25T16:31:25;9.45;;;4.55;;
58768;SDS011;44536;47.474;19.056;2022-08-25T16:34:28;7.05;;;3.22;;
58768;SDS011;44536;47.474;19.056;2022-08-25T16:37:33;5.22;;;2.83;;
58768;SDS011;44536;47.474;19.056;2022-08-25T16:40:40;6.95;;;3.22;;
58768;SDS011;44536;47.474;19.056;2022-08-25T16:43:43;5.57;;;3.10;;
58768;SDS011;44536;47.474;19.056;2022-08-25T16:46:47;5.50;;;3.33;;
58768;SDS011;44536;47.474;19.056;2022-08-25T16:49:49;7.13;;;3.20;;
58768;SDS011;44536;47.474;19.056;2022-08-25T16:52:52;9.32;;;3.70;;
58768;SDS011;44536;47.474;19.056;2022-08-25T16:56:13;9.98;;;3.70;;
58768;SDS011;44536;47.474;19.056;2022-08-25T16:59:16;5.87;;;3.03;;
58768;SDS011;44536;47.474;19.056;2022-08-25T17:02:18;6.80;;;3.37;;
58768;SDS011;44536;47.474;19.056;2022-08-25T17:05:22;9.65;;;3.58;;
58768;SDS011;44536;47.474;19.056;2022-08-25T17:08:28;6.45;;;3.45;;
58768;SDS011;44536;47.474;19.056;2022-08-25T17:11:33;8.23;;;3.80;;
58768;SDS011;44536;47.474;19.056;2022-08-25T17:14:36;6.05;;;3.20;;
58768;SDS011;44536;47.474;19.056;2022-08-25T17:17:39;7.90;;;3.87;;
58768;SDS011;44536;47.474;19.056;2022-08-25T17:20:42;5.90;;;2.97;;
58768;SDS011;44536;47.474;19.056;2022-08-25T17:23:46;10.43;;;3.60;;
58768;SDS011;44536;47.474;19.056;2022-08-25T17:26:52;8.45;;;4.00;;
58768;SDS011;44536;47.474;19.056;2022-08-25T17:29:54;6.00;;;3.20;;
58768;SDS011;44536;47.474;19.056;2022-08-25T17:32:57;12.20;;;4.33;;
58768;SDS011;44536;47.474;19.056;2022-08-25T17:36:01;7.95;;;3.97;;
58768;SDS011;44536;47.474;19.056;2022-08-25T17:39:04;9.95;;;4.40;;
58768;SDS011;44536;47.474;19.056;2022-08-25T17:42:08;10.05;;;3.95;;
58768;SDS011;44536;47.474;19.056;2022-08-25T17:45:10;7.72;;;3.78;;
58768;SDS011;44536;47.474;19.056;2022-08-25T17:48:13;6.20;;;3.70;;
58768;SDS011;44536;47.474;19.056;2022-08-25T17:51:16;6.95;;;3.95;;
58768;SDS011;44536;47.474;19.056;2022-08-25T17:57:22;6.25;;;2.97;;
58768;SDS011;44536;47.474;19.056;2022-08-25T18:00:24;10.85;;;4.00;;
58768;SDS011;44536;47.474;19.056;2022-08-25T18:03:27;7.15;;;3.35;;
58768;SDS011;44536;47.474;19.056;2022-08-25T18:06:30;6.40;;;3.53;;
58768;SDS011;44536;47.474;19.056;2022-08-25T18:09:32;8.18;;;4.05;;
58768;SDS011;44536;47.474;19.056;2022-08-25T18:12:35;9.32;;;4.03;;
58768;SDS011;44536;47.474;19.056;2022-08-25T18:15:38;7.85;;;3.20;;
58768;SDS011;44536;47.474;19.056;2022-08-25T18:18:43;11.93;;;3.53;;
58768;SDS011;44536;47.474;19.056;2022-08-25T18:21:46;8.52;;;3.80;;
58768;SDS011;44536;47.474;19.056;2022-08-25T18:24:48;8.48;;;4.25;;
58768;SDS011;44536;47.474;19.056;2022-08-25T18:27:54;9.35;;;5.07;;
58768;SDS011;44536;47.474;19.056;2022-08-25T18:30:57;6.53;;;3.35;;
58768;SDS011;44536;47.474;19.056;2022-08-25T18:34:00;9.40;;;4.60;;
58768;SDS011;44536;47.474;19.056;2022-08-25T18:37:03;6.62;;;3.62;;
58768;SDS011;44536;47.474;19.056;2022-08-25T18:40:24;8.75;;;3.85;;
58768;SDS011;44536;47.474;19.056;2022-08-25T18:43:27;14.13;;;5.05;;
58768;SDS011;44536;47.474;19.056;2022-08-25T18:46:34;5.87;;;3.03;;
58768;SDS011;44536;47.474;19.056;2022-08-25T18:49:38;10.93;;;3.67;;
58768;SDS011;44536;47.474;19.056;2022-08-25T18:52:40;10.95;;;3.37;;
58768;SDS011;44536;47.474;19.056;2022-08-25T18:55:43;6.72;;;3.60;;
58768;SDS011;44536;47.474;19.056;2022-08-25T18:58:46;9.95;;;3.90;;
58768;SDS011;44536;47.474;19.056;2022-08-25T19:01:49;11.93;;;4.82;;
58768;SDS011;44536;47.474;19.056;2022-08-25T19:04:52;7.43;;;2.97;;
58768;SDS011;44536;47.474;19.056;2022-08-25T19:07:54;7.30;;;3.00;;
58768;SDS011;44536;47.474;19.056;2022-08-25T19:10:56;7.37;;;4.00;;
58768;SDS011;44536;47.474;19.056;2022-08-25T19:13:58;6.78;;;3.22;;
58768;SDS011;44536;47.474;19.056;2022-08-25T19:17:01;10.02;;;3.22;;
58768;SDS011;44536;47.474;19.056;2022-08-25T19:20:04;7.45;;;4.12;;
58768;SDS011;44536;47.474;19.056;2022-08-25T19:23:12;10.43;;;4.57;;
58768;SDS011;44536;47.474;19.056;2022-08-25T19:26:14;8.50;;;3.55;;
58768;SDS011;44536;47.474;19.056;2022-08-25T19:29:19;8.45;;;3.85;;
58768;SDS011;44536;47.474;19.056;2022-08-25T19:32:21;8.20;;;3.95;;
58768;SDS011;44536;47.474;19.056;2022-08-25T19:38:36;9.93;;;3.95;;
58768;SDS011;44536;47.474;19.056;2022-08-25T19:41:38;9.43;;;4.03;;
58768;SDS011;44536;47.474;19.056;2022-08-25T19:44:42;7.80;;;4.62;;
58768;SDS011;44536;47.474;19.056;2022-08-25T19:47:45;12.13;;;4.40;;
58768;SDS011;44536;47.474;19.056;2022-08-25T19:50:48;6.87;;;3.90;;
58768;SDS011;44536;47.474;19.056;2022-08-25T19:53:57;7.93;;;3.90;;
58768;SDS011;44536;47.474;19.056;2022-08-25T19:57:04;6.03;;;3.70;;
58768;SDS011;44536;47.474;19.056;2022-08-25T20:00:13;16.45;;;4.47;;
58768;SDS011;44536;47.474;19.056;2022-08-25T20:03:19;8.10;;;3.62;;
58768;SDS011;44536;47.474;19.056;2022-08-25T20:06:22;13.30;;;5.15;;
58768;SDS011;44536;47.474;19.056;2022-08-25T20:09:28;7.72;;;4.25;;
58768;SDS011;44536;47.474;19.056;2022-08-25T20:12:41;7.50;;;3.62;;
58768;SDS011;44536;47.474;19.056;2022-08-25T20:15:47;9.93;;;3.65;;
58768;SDS011;44536;47.474;19.056;2022-08-25T20:18:51;7.30;;;4.22;;
58768;SDS011;44536;47.474;19.056;2022-08-25T20:21:53;10.53;;;3.73;;
58768;SDS011;44536;47.474;19.056;2022-08-25T20:24:56;6.85;;;3.80;;
58768;SDS011;44536;47.474;19.056;2022-08-25T20:28:00;8.50;;;4.30;;
58768;SDS011;44536;47.474;19.056;2022-08-25T20:31:03;10.00;;;4.07;;
58768;SDS011;44536;47.474;19.056;2022-08-25T20:34:07;7.65;;;4.32;;
58768;SDS011;44536;47.474;19.056;2022-08-25T20:37:09;7.43;;;4.35;;
58768;SDS011;44536;47.474;19.056;2022-08-25T20:40:13;11.35;;;4.85;;
58768;SDS011;44536;47.474;19.056;2022-08-25T20:43:17;12.63;;;5.47;;
58768;SDS011;44536;47.474;19.056;2022-08-25T20:46:21;15.18;;;4.90;;
58768;SDS011;44536;47.474;19.056;2022-08-25T20:49:25;8.00;;;4.45;;
58768;SDS011;44536;47.474;19.056;2022-08-25T20:52:29;9.10;;;4.53;;
58768;SDS011;44536;47.474;19.056;2022-08-25T20:55:31;8.85;;;4.30;;
58768;SDS011;44536;47.474;19.056;2022-08-25T20:58:43;9.30;;;4.57;;
58768;SDS011;44536;47.474;19.056;2022-08-25T21:01:46;7.28;;;4.15;;
58768;SDS011;44536;47.474;19.056;2022-08-25T21:04:50;6.82;;;3.53;;
58768;SDS011;44536;47.474;19.056;2022-08-25T21:07:53;7.75;;;4.10;;
58768;SDS011;44536;47.474;19.056;2022-08-25T21:10:56;6.95;;;3.90;;
58768;SDS011;44536;47.474;19.056;2022-08-25T21:13:59;7.05;;;4.32;;
58768;SDS011;44536;47.474;19.056;2022-08-25T21:17:09;7.07;;;4.03;;
58768;SDS011;44536;47.474;19.056;2022-08-25T21:20:13;8.52;;;3.70;;
58768;SDS011;44536;47.474;19.056;2022-08-25T21:23:16;7.17;;;3.73;;
58768;SDS011;44536;47.474;19.056;2022-08-25T21:26:19;7.70;;;4.47;;
58768;SDS011;44536;47.474;19.056;2022-08-25T21:29:27;8.63;;;4.43;;